Sagittarian — WCY5210 — position and weather

sailwx.info

Track history (hours):
 
Tides and Currents Weather Stations Pressure Air Temp Water Temp Dewpoint Dewpoint Depression Visibility Wind Speed Wind Dir Waves Ship Positions

Sagittarian

Owner: TAURUS MARINE, SAN FRANCISCO, CA. More information available from US FCC via Universal Licensing System and Coast Guard Vessel Documentation Center.

Last reported at 2015-Mar-31 20:32 UTC. Time now 2015-Apr-02 06:35 UTC.
Position N 38°04' W 122°12'.

; draft 3 m.

Type: Towing. MMSI: 366969510.

Date/timePositionNaut miles runAvg speedWind from/ knotsBaromVisibWave heightAir tempDewpointWater temp
2015-Mar-31 20:32N 38°04' W 122°12'8 7.8
2015-Mar-31 19:33N 38°02' W 122°22'7 7.3
2015-Mar-31 18:33N 37°56' W 122°27'6 5.9
2015-Mar-31 17:33N 37°50' W 122°28'3 2.6
2015-Mar-31 16:33N 37°48' W 122°30'4 4.3
2015-Mar-31 15:33N 37°49' W 122°25'  
2015-Mar-28 12:34N 37°47' W 122°23'3 2.7
2015-Mar-28 11:34N 37°49' W 122°22'2 0.4
2015-Mar-28 06:33N 37°48' W 122°24'6 6.0
2015-Mar-28 05:31N 37°49' W 122°31'5 5.2
2015-Mar-28 04:33N 37°51' W 122°25'5 4.5
2015-Mar-28 03:30N 37°55' W 122°25'0 0.3
2015-Mar-28 02:33N 37°55' W 122°25'8 8.1
2015-Mar-28 01:33N 37°47' W 122°23'1 0.1
2015-Mar-27 17:29N 37°46' W 122°23'5 4.8
2015-Mar-27 16:33N 37°49' W 122°28'3 2.8
2015-Mar-27 15:33N 37°49' W 122°31'6 6.4
2015-Mar-27 14:34N 37°53' W 122°25'3 2.8
2015-Mar-27 13:31N 37°55' W 122°25'0 0.1
2015-Mar-27 12:33N 37°55' W 122°25'4 4.3
2015-Mar-27 11:34N 37°51' W 122°24'5 4.8
2015-Mar-27 10:33N 37°46' W 122°23'0 0.0
2015-Mar-27 09:32N 37°46' W 122°23'0 0.0
2015-Mar-27 08:34N 37°46' W 122°23'0 0.0
2015-Mar-27 07:33N 37°46' W 122°23'2 2.5
2015-Mar-27 06:33N 37°49' W 122°24'17 7.7
2015-Mar-27 04:24N 38°04' W 122°14'0 0.2
2015-Mar-27 02:25N 38°04' W 122°13'2 0.2
2015-Mar-26 12:11N 38°05' W 122°16'0 0.0
2015-Mar-26 11:06N 38°05' W 122°16'0 0.0
2015-Mar-26 10:32N 38°05' W 122°16'0 0.0
2015-Mar-26 05:33N 38°05' W 122°16'0 0.0
2015-Mar-26 04:31N 38°05' W 122°16'0 0.0
2015-Mar-26 03:33N 38°05' W 122°16'0 0.0
2015-Mar-26 02:33N 38°05' W 122°16'0 0.0
2015-Mar-26 01:33N 38°05' W 122°16'0 0.0
2015-Mar-26 00:33N 38°05' W 122°16'6 5.6
2015-Mar-25 23:30N 38°02' W 122°09'1 0.5
2015-Mar-25 22:18N 38°02' W 122°09'5 6.4
2015-Mar-25 21:28N 38°04' W 122°15'6 6.2
2015-Mar-25 20:26N 38°01' W 122°23'6 6.5
2015-Mar-25 19:33N 37°57' W 122°27'3 2.7
2015-Mar-25 18:33N 37°54' W 122°26'5 5.4
2015-Mar-25 17:33N 37°49' W 122°23'3 2.6
2015-Mar-25 16:33N 37°46' W 122°23'0 0.0
2015-Mar-25 15:33N 37°46' W 122°23'0 0.0
2015-Mar-25 14:33N 37°46' W 122°23'0 0.0
2015-Mar-25 13:33N 37°46' W 122°23'0 0.0
2015-Mar-25 12:33N 37°46' W 122°23'0 0.0
2015-Mar-25 11:33N 37°46' W 122°23'0 0.0
2015-Mar-25 10:33N 37°46' W 122°23'1 0.6
2015-Mar-25 09:33N 37°47' W 122°23'7 7.5
2015-Mar-25 08:33N 37°54' W 122°26'3 2.6
2015-Mar-25 07:33N 37°52' W 122°24'4 4.3
2015-Mar-25 06:33N 37°49' W 122°29'2 1.9
2015-Mar-25 05:33N 37°49' W 122°31'22 0.9
2015-Mar-24 06:23N 38°02' W 122°09'2 0.1
2015-Mar-23 12:27N 38°03' W 122°11'5 6.1
2015-Mar-23 11:33N 38°03' W 122°18'7 6.9
2015-Mar-23 10:34N 37°59' W 122°25'5 4.6
2015-Mar-23 09:34N 37°55' W 122°26'0 0.2
2015-Mar-23 08:34N 37°55' W 122°26'8 8.2
2015-Mar-23 07:33N 37°47' W 122°23'1 0.2
2015-Mar-23 00:33N 37°48' W 122°23'7 7.0
2015-Mar-22 23:33N 37°55' W 122°26'1 1.1
2015-Mar-22 22:33N 37°55' W 122°25'5 5.0
2015-Mar-22 21:33N 37°51' W 122°23'4 0.2
2015-Mar-22 03:33N 37°46' W 122°23'0 0.3
2015-Mar-22 02:34N 37°47' W 122°23'6 6.1
2015-Mar-22 01:33N 37°52' W 122°25'3 2.8
2015-Mar-22 00:33N 37°55' W 122°25'1 0.8
2015-Mar-21 23:34N 37°54' W 122°26'6 6.1
2015-Mar-21 22:33N 37°49' W 122°24'  
Track history (hours):
 
Tides and Currents Weather Stations Pressure Air Temp Water Temp Dewpoint Dewpoint Depression Visibility Wind Speed Wind Dir Waves Ship Positions

Sagittarian

Owner: TAURUS MARINE, SAN FRANCISCO, CA. More information available from US FCC via Universal Licensing System and Coast Guard Vessel Documentation Center.

Last reported at 2015-Mar-31 20:32 UTC. Time now 2015-Apr-02 06:35 UTC.
Position N 38°04' W 122°12'.

; draft 3 m.

Type: Towing. MMSI: 366969510.

Date/timePositionNaut miles runAvg speedWind from/ knotsBaromVisibWave heightAir tempDewpointWater temp
2015-Mar-31 20:32N 38°04' W 122°12'8 7.8
2015-Mar-31 19:33N 38°02' W 122°22'7 7.3
2015-Mar-31 18:33N 37°56' W 122°27'6 5.9
2015-Mar-31 17:33N 37°50' W 122°28'3 2.6
2015-Mar-31 16:33N 37°48' W 122°30'4 4.3
2015-Mar-31 15:33N 37°49' W 122°25'  
2015-Mar-28 12:34N 37°47' W 122°23'3 2.7
2015-Mar-28 11:34N 37°49' W 122°22'2 0.4
2015-Mar-28 06:33N 37°48' W 122°24'6 6.0
2015-Mar-28 05:31N 37°49' W 122°31'5 5.2
2015-Mar-28 04:33N 37°51' W 122°25'5 4.5
2015-Mar-28 03:30N 37°55' W 122°25'0 0.3
2015-Mar-28 02:33N 37°55' W 122°25'8 8.1
2015-Mar-28 01:33N 37°47' W 122°23'1 0.1
2015-Mar-27 17:29N 37°46' W 122°23'5 4.8
2015-Mar-27 16:33N 37°49' W 122°28'3 2.8
2015-Mar-27 15:33N 37°49' W 122°31'6 6.4
2015-Mar-27 14:34N 37°53' W 122°25'3 2.8
2015-Mar-27 13:31N 37°55' W 122°25'0 0.1
2015-Mar-27 12:33N 37°55' W 122°25'4 4.3
2015-Mar-27 11:34N 37°51' W 122°24'5 4.8
2015-Mar-27 10:33N 37°46' W 122°23'0 0.0
2015-Mar-27 09:32N 37°46' W 122°23'0 0.0
2015-Mar-27 08:34N 37°46' W 122°23'0 0.0
2015-Mar-27 07:33N 37°46' W 122°23'2 2.5
2015-Mar-27 06:33N 37°49' W 122°24'17 7.7
2015-Mar-27 04:24N 38°04' W 122°14'0 0.2
2015-Mar-27 02:25N 38°04' W 122°13'2 0.2
2015-Mar-26 12:11N 38°05' W 122°16'0 0.0
2015-Mar-26 11:06N 38°05' W 122°16'0 0.0
2015-Mar-26 10:32N 38°05' W 122°16'0 0.0
2015-Mar-26 05:33N 38°05' W 122°16'0 0.0
2015-Mar-26 04:31N 38°05' W 122°16'0 0.0
2015-Mar-26 03:33N 38°05' W 122°16'0 0.0
2015-Mar-26 02:33N 38°05' W 122°16'0 0.0
2015-Mar-26 01:33N 38°05' W 122°16'0 0.0
2015-Mar-26 00:33N 38°05' W 122°16'6 5.6
2015-Mar-25 23:30N 38°02' W 122°09'1 0.5
2015-Mar-25 22:18N 38°02' W 122°09'5 6.4
2015-Mar-25 21:28N 38°04' W 122°15'6 6.2
2015-Mar-25 20:26N 38°01' W 122°23'6 6.5
2015-Mar-25 19:33N 37°57' W 122°27'3 2.7
2015-Mar-25 18:33N 37°54' W 122°26'5 5.4
2015-Mar-25 17:33N 37°49' W 122°23'3 2.6
2015-Mar-25 16:33N 37°46' W 122°23'0 0.0
2015-Mar-25 15:33N 37°46' W 122°23'0 0.0
2015-Mar-25 14:33N 37°46' W 122°23'0 0.0
2015-Mar-25 13:33N 37°46' W 122°23'0 0.0
2015-Mar-25 12:33N 37°46' W 122°23'0 0.0
2015-Mar-25 11:33N 37°46' W 122°23'0 0.0
2015-Mar-25 10:33N 37°46' W 122°23'1 0.6
2015-Mar-25 09:33N 37°47' W 122°23'7 7.5
2015-Mar-25 08:33N 37°54' W 122°26'3 2.6
2015-Mar-25 07:33N 37°52' W 122°24'4 4.3
2015-Mar-25 06:33N 37°49' W 122°29'2 1.9
2015-Mar-25 05:33N 37°49' W 122°31'22 0.9
2015-Mar-24 06:23N 38°02' W 122°09'2 0.1
2015-Mar-23 12:27N 38°03' W 122°11'5 6.1
2015-Mar-23 11:33N 38°03' W 122°18'7 6.9
2015-Mar-23 10:34N 37°59' W 122°25'5 4.6
2015-Mar-23 09:34N 37°55' W 122°26'0 0.2
2015-Mar-23 08:34N 37°55' W 122°26'8 8.2
2015-Mar-23 07:33N 37°47' W 122°23'1 0.2
2015-Mar-23 00:33N 37°48' W 122°23'7 7.0
2015-Mar-22 23:33N 37°55' W 122°26'1 1.1
2015-Mar-22 22:33N 37°55' W 122°25'5 5.0
2015-Mar-22 21:33N 37°51' W 122°23'4 0.2
2015-Mar-22 03:33N 37°46' W 122°23'0 0.3
2015-Mar-22 02:34N 37°47' W 122°23'6 6.1
2015-Mar-22 01:33N 37°52' W 122°25'3 2.8
2015-Mar-22 00:33N 37°55' W 122°25'1 0.8
2015-Mar-21 23:34N 37°54' W 122°26'6 6.1
2015-Mar-21 22:33N 37°49' W 122°24'  

Dump ship's entire track history